createdAt,value
2023-05-22T00:01:50.334Z,5.68
2023-05-22T00:04:16.985Z,5.47
2023-05-22T00:06:43.635Z,4.35
2023-05-22T00:09:10.330Z,4.70
2023-05-22T00:11:37.040Z,5.15
2023-05-22T00:14:03.865Z,4.80
2023-05-22T00:16:30.743Z,4.80
2023-05-22T00:18:57.655Z,4.90
2023-05-22T00:21:24.572Z,4.25
2023-05-22T00:23:51.220Z,4.22
2023-05-22T00:26:17.915Z,4.55
2023-05-22T00:28:44.581Z,4.70
2023-05-22T00:31:11.365Z,5.57
2023-05-22T00:33:37.992Z,5.20
2023-05-22T00:36:05.504Z,4.78
2023-05-22T00:38:34.552Z,4.78
2023-05-22T00:41:02.647Z,4.88
2023-05-22T00:43:29.411Z,5.93
2023-05-22T00:45:56.650Z,4.70
2023-05-22T00:48:23.964Z,5.00
2023-05-22T00:50:51.507Z,4.40
2023-05-22T00:53:22.764Z,4.60
2023-05-22T00:55:50.243Z,4.78
2023-05-22T00:58:18.457Z,5.75
2023-05-22T01:03:17.895Z,4.90
2023-05-22T01:05:45.682Z,6.10
2023-05-22T01:08:12.589Z,5.20
2023-05-22T01:10:40.562Z,5.97
2023-05-22T01:16:01.603Z,5.50
2023-05-22T01:19:04.353Z,5.45
2023-05-22T01:22:05.786Z,5.10
2023-05-22T01:24:47.081Z,4.53
2023-05-22T01:27:40.404Z,4.47
2023-05-22T01:30:40.427Z,4.72
2023-05-22T01:33:09.597Z,4.57
2023-05-22T01:35:39.633Z,5.80
2023-05-22T01:38:08.491Z,4.80
2023-05-22T01:40:36.982Z,6.05
2023-05-22T01:43:04.404Z,5.40
2023-05-22T01:45:31.257Z,5.30
2023-05-22T01:47:58.826Z,5.25
2023-05-22T01:50:25.690Z,5.30
2023-05-22T01:53:11.951Z,5.57
2023-05-22T01:55:46.971Z,5.10
2023-05-22T01:58:26.407Z,5.05
2023-05-22T02:00:58.047Z,4.90
2023-05-22T02:03:30.145Z,5.72
2023-05-22T02:06:00.183Z,5.88
2023-05-22T02:08:28.223Z,5.28
2023-05-22T02:10:56.794Z,5.23
2023-05-22T02:13:23.676Z,5.07
2023-05-22T02:15:51.642Z,5.22
2023-05-22T02:18:18.396Z,6.28
2023-05-22T02:20:46.634Z,4.97
2023-05-22T02:23:13.563Z,5.60
2023-05-22T02:25:40.400Z,5.07
2023-05-22T02:28:07.048Z,6.70
2023-05-22T02:30:33.763Z,4.95
2023-05-22T02:33:00.638Z,5.32
2023-05-22T02:35:27.366Z,5.85
2023-05-22T02:37:54.329Z,5.22
2023-05-22T02:40:21.125Z,5.68
2023-05-22T02:42:47.888Z,4.90
2023-05-22T02:45:15.298Z,4.70
2023-05-22T02:47:42.056Z,5.88
2023-05-22T02:50:09.087Z,5.60
2023-05-22T02:52:35.992Z,4.72
2023-05-22T02:55:03.944Z,6.28
2023-05-22T02:57:30.723Z,5.95
2023-05-22T03:02:26.491Z,5.10
2023-05-22T03:04:53.184Z,4.93
2023-05-22T03:07:19.848Z,5.72
2023-05-22T03:09:46.443Z,5.53
2023-05-22T03:12:13.076Z,6.57
2023-05-22T03:14:39.971Z,5.60
2023-05-22T03:17:06.734Z,5.95
2023-05-22T03:19:33.641Z,5.75
2023-05-22T03:22:00.369Z,5.97
2023-05-22T03:24:27.178Z,5.95
2023-05-22T03:26:54.140Z,5.63
2023-05-22T03:29:30.802Z,5.95
2023-05-22T03:31:57.692Z,5.93
2023-05-22T03:34:25.442Z,6.32
2023-05-22T03:36:52.237Z,5.43
2023-05-22T03:39:18.931Z,5.57
2023-05-22T03:41:54.535Z,5.65
2023-05-22T03:44:23.307Z,5.93
2023-05-22T03:46:50.266Z,5.15
2023-05-22T03:49:16.949Z,4.93
2023-05-22T03:51:43.703Z,6.05
2023-05-22T03:54:10.380Z,5.55
2023-05-22T03:56:37.535Z,5.05
2023-05-22T03:59:04.205Z,5.50
2023-05-22T04:01:30.938Z,6.05
2023-05-22T04:03:57.565Z,5.20
2023-05-22T04:06:24.372Z,5.63
2023-05-22T04:08:51.128Z,5.68
2023-05-22T04:11:17.788Z,5.80
2023-05-22T04:13:45.126Z,5.50
2023-05-22T04:16:11.898Z,5.57
2023-05-22T04:18:38.521Z,6.63
2023-05-22T04:21:05.699Z,6.75
2023-05-22T04:23:32.462Z,5.45
2023-05-22T04:25:59.106Z,6.10
2023-05-22T04:28:25.890Z,6.03
2023-05-22T04:30:52.549Z,5.18
2023-05-22T04:33:19.230Z,6.55
2023-05-22T04:35:45.859Z,5.85
2023-05-22T04:38:12.457Z,5.47
2023-05-22T04:40:39.322Z,5.20
2023-05-22T04:43:06.324Z,4.80
2023-05-22T04:45:33.130Z,5.13
2023-05-22T04:48:00.195Z,5.35
2023-05-22T04:50:27.093Z,5.50
2023-05-22T04:52:53.696Z,5.35
2023-05-22T04:55:20.464Z,5.35
2023-05-22T04:57:47.633Z,5.75
2023-05-22T05:00:15.087Z,4.53
2023-05-22T05:02:42.100Z,4.32
2023-05-22T05:05:09.023Z,4.35
2023-05-22T05:07:39.871Z,4.25
2023-05-22T05:10:09.588Z,4.20
2023-05-22T05:12:37.007Z,5.03
2023-05-22T05:15:03.969Z,5.15
2023-05-22T05:17:30.612Z,5.03
2023-05-22T05:19:57.387Z,5.50
2023-05-22T05:22:24.222Z,4.85
2023-05-22T05:24:50.944Z,4.80
2023-05-22T05:27:17.671Z,5.30
2023-05-22T05:29:45.033Z,4.75
2023-05-22T05:32:19.235Z,4.40
2023-05-22T05:35:06.457Z,4.17
2023-05-22T05:37:45.566Z,4.47
2023-05-22T05:40:13.421Z,4.28
2023-05-22T05:42:45.037Z,4.55
2023-05-22T05:45:13.592Z,4.28
2023-05-22T05:47:40.336Z,3.53
2023-05-22T05:50:08.198Z,4.97
2023-05-22T05:52:37.835Z,3.85
2023-05-22T05:55:10.181Z,4.15
2023-05-22T05:57:37.525Z,4.32
2023-05-22T06:00:07.819Z,4.65
2023-05-22T06:02:43.293Z,4.15
2023-05-22T06:05:23.784Z,4.05
2023-05-22T06:07:57.065Z,4.20
2023-05-22T06:10:24.003Z,5.57
2023-05-22T06:12:58.381Z,4.45
2023-05-22T06:15:25.572Z,3.95
2023-05-22T06:17:52.401Z,4.22
2023-05-22T06:20:19.958Z,3.85
2023-05-22T06:22:46.769Z,3.97
2023-05-22T06:25:13.479Z,4.20
2023-05-22T06:27:40.309Z,4.25
2023-05-22T06:30:07.798Z,3.58
2023-05-22T06:32:38.890Z,3.58
2023-05-22T06:35:07.221Z,3.50
2023-05-22T06:37:33.803Z,3.97
2023-05-22T06:40:01.109Z,4.18
2023-05-22T06:42:33.609Z,3.92
2023-05-22T06:45:20.301Z,4.15
2023-05-22T06:48:02.041Z,4.03
2023-05-22T06:50:30.652Z,3.92
2023-05-22T06:52:57.709Z,4.30
2023-05-22T06:55:25.259Z,4.05
2023-05-22T06:58:02.891Z,4.18
2023-05-22T07:00:31.273Z,3.63
2023-05-22T07:03:07.768Z,4.35
2023-05-22T07:06:02.013Z,6.25
2023-05-22T07:08:30.439Z,4.22
2023-05-22T07:10:57.506Z,4.05
2023-05-22T07:13:24.181Z,4.32
2023-05-22T07:15:50.961Z,4.07
2023-05-22T07:18:17.632Z,4.22
2023-05-22T07:20:44.865Z,4.70
2023-05-22T07:23:15.368Z,4.70
2023-05-22T07:25:43.087Z,4.65
2023-05-22T07:28:11.564Z,5.03
2023-05-22T07:30:50.081Z,4.05
2023-05-22T07:33:16.753Z,5.38
2023-05-22T07:35:44.496Z,4.38
2023-05-22T07:38:11.512Z,4.53
2023-05-22T07:40:41.900Z,4.60
2023-05-22T07:43:08.554Z,4.72
2023-05-22T07:45:35.994Z,4.80
2023-05-22T07:48:06.887Z,4.57
2023-05-22T07:50:36.161Z,5.22
2023-05-22T07:53:03.802Z,4.90
2023-05-22T07:55:34.013Z,4.75
2023-05-22T07:58:03.319Z,4.57
2023-05-22T08:00:34.745Z,4.55
2023-05-22T08:03:01.555Z,4.53
2023-05-22T08:05:28.403Z,4.90
2023-05-22T08:07:55.108Z,5.20
2023-05-22T08:10:22.641Z,4.85
2023-05-22T08:12:49.238Z,5.03
2023-05-22T08:15:15.900Z,4.55
2023-05-22T08:17:42.659Z,4.75
2023-05-22T08:20:09.788Z,3.75
2023-05-22T08:22:38.812Z,4.80
2023-05-22T08:25:05.628Z,4.72
2023-05-22T08:27:32.359Z,5.53
2023-05-22T08:29:58.986Z,5.28
2023-05-22T08:32:25.657Z,5.25
2023-05-22T08:34:52.400Z,5.22
2023-05-22T08:37:19.160Z,4.45
2023-05-22T08:39:45.764Z,4.75
2023-05-22T08:42:12.618Z,5.35
2023-05-22T08:44:39.548Z,4.60
2023-05-22T08:47:07.165Z,5.13
2023-05-22T08:49:36.739Z,4.75
2023-05-22T08:52:14.762Z,4.50
2023-05-22T08:54:42.586Z,4.43
2023-05-22T08:57:09.704Z,5.18
2023-05-22T08:59:37.867Z,4.75
2023-05-22T09:02:06.770Z,6.28
2023-05-22T09:04:33.661Z,4.70
2023-05-22T09:07:00.396Z,5.18
2023-05-22T09:09:27.094Z,5.72
2023-05-22T09:11:54.935Z,5.00
2023-05-22T09:14:21.550Z,4.97
2023-05-22T09:16:51.524Z,6.07
2023-05-22T09:19:18.572Z,6.13
2023-05-22T09:21:45.247Z,5.28
2023-05-22T09:24:12.148Z,5.07
2023-05-22T09:26:39.652Z,4.75
2023-05-22T09:29:09.561Z,5.32
2023-05-22T09:31:43.589Z,5.07
2023-05-22T09:34:12.564Z,5.38
2023-05-22T09:36:39.173Z,5.00
2023-05-22T09:39:05.912Z,4.82
2023-05-22T09:41:38.452Z,5.63
2023-05-22T09:44:15.292Z,5.60
2023-05-22T09:46:44.270Z,5.93
2023-05-22T09:49:14.148Z,5.20
2023-05-22T09:51:45.399Z,4.50
2023-05-22T09:54:14.039Z,4.50
2023-05-22T09:56:43.356Z,5.72
2023-05-22T09:59:13.398Z,4.70
2023-05-22T10:01:41.310Z,4.85
2023-05-22T10:06:40.650Z,5.85
2023-05-22T10:09:15.856Z,6.38
2023-05-22T10:11:45.165Z,5.60
2023-05-22T10:14:12.548Z,6.30
2023-05-22T10:16:41.203Z,6.85
2023-05-22T10:19:08.153Z,5.10
2023-05-22T10:21:35.957Z,5.25
2023-05-22T10:26:30.479Z,6.13
2023-05-22T10:29:11.138Z,6.22
2023-05-22T10:32:00.576Z,7.57
2023-05-22T10:34:47.879Z,7.63
2023-05-22T10:37:52.049Z,6.20
2023-05-22T10:40:32.677Z,6.75
2023-05-22T10:43:01.056Z,7.07
2023-05-22T10:45:28.857Z,7.43
2023-05-22T10:48:11.846Z,6.65
2023-05-22T10:50:40.165Z,6.28
2023-05-22T10:53:30.851Z,6.22
2023-05-22T10:55:59.269Z,6.03
2023-05-22T10:58:28.969Z,8.68
2023-05-22T11:01:18.879Z,7.28
2023-05-22T11:04:11.198Z,6.47
2023-05-22T11:06:45.337Z,6.40
2023-05-22T11:09:27.204Z,6.45
2023-05-22T11:12:13.917Z,8.25
2023-05-22T11:14:40.586Z,7.33
2023-05-22T11:17:07.337Z,7.85
2023-05-22T11:19:34.455Z,8.27
2023-05-22T11:22:01.719Z,8.80
2023-05-22T11:24:32.965Z,6.50
2023-05-22T11:27:06.411Z,6.60
2023-05-22T11:29:33.804Z,7.97
2023-05-22T11:32:01.788Z,7.15
2023-05-22T11:34:28.701Z,7.78
2023-05-22T11:36:59.812Z,8.73
2023-05-22T11:39:26.884Z,8.05
2023-05-22T11:41:53.657Z,7.13
2023-05-22T11:44:20.517Z,8.33
2023-05-22T11:46:47.313Z,7.60
2023-05-22T11:49:14.141Z,8.00
2023-05-22T11:51:40.823Z,9.63
2023-05-22T11:54:07.755Z,7.82
2023-05-22T11:56:34.375Z,7.03
2023-05-22T11:59:01.508Z,6.75
2023-05-22T12:01:28.323Z,7.80
2023-05-22T12:03:55.125Z,9.55
2023-05-22T12:06:22.146Z,8.95
2023-05-22T12:08:48.958Z,8.97
2023-05-22T12:11:15.612Z,7.90
2023-05-22T12:13:42.244Z,8.82
2023-05-22T12:16:20.044Z,9.80
2023-05-22T12:18:46.756Z,7.55
2023-05-22T12:21:13.417Z,8.43
2023-05-22T12:23:49.162Z,8.02
2023-05-22T12:26:16.137Z,7.22
2023-05-22T12:28:43.232Z,8.03
2023-05-22T12:31:09.922Z,9.38
2023-05-22T12:33:39.356Z,10.40
2023-05-22T12:36:09.342Z,10.32
2023-05-22T12:38:38.096Z,9.27
2023-05-22T12:41:04.949Z,9.30
2023-05-22T12:43:31.734Z,6.72
2023-05-22T12:46:00.458Z,8.63
2023-05-22T12:48:29.097Z,7.00
2023-05-22T12:50:55.914Z,9.00
2023-05-22T12:53:22.506Z,9.80
2023-05-22T12:55:49.207Z,7.72
2023-05-22T12:58:16.215Z,7.97
2023-05-22T13:00:42.890Z,10.73
2023-05-22T13:03:09.957Z,8.02
2023-05-22T13:05:36.728Z,8.13
2023-05-22T13:08:03.340Z,8.20
2023-05-22T13:10:30.109Z,10.63
2023-05-22T13:12:56.924Z,9.40
2023-05-22T13:15:23.680Z,9.55
2023-05-22T13:17:50.365Z,9.43
2023-05-22T13:20:16.981Z,8.95
2023-05-22T13:22:43.671Z,9.85
2023-05-22T13:25:10.398Z,8.98
2023-05-22T13:27:37.023Z,9.48
2023-05-22T13:30:03.989Z,10.10
2023-05-22T13:32:30.660Z,8.57
2023-05-22T13:34:57.277Z,8.63
2023-05-22T13:37:23.989Z,8.95
2023-05-22T13:39:50.921Z,6.82
2023-05-22T13:42:17.709Z,10.10
2023-05-22T13:44:44.712Z,8.93
2023-05-22T13:47:11.564Z,8.33
2023-05-22T13:49:38.160Z,8.00
2023-05-22T13:52:04.961Z,8.25
2023-05-22T13:54:31.569Z,7.60
2023-05-22T13:56:58.166Z,6.95
2023-05-22T13:59:24.849Z,5.90
2023-05-22T14:01:51.509Z,6.45
2023-05-22T14:04:18.130Z,6.63
2023-05-22T14:06:44.814Z,6.32
2023-05-22T14:09:11.490Z,5.78
2023-05-22T14:11:38.262Z,6.53
2023-05-22T14:14:05.017Z,6.97
2023-05-22T14:16:31.770Z,7.88
2023-05-22T14:19:00.200Z,6.40
2023-05-22T14:21:27.613Z,7.82
2023-05-22T14:23:54.356Z,7.40
2023-05-22T14:26:20.996Z,8.80
2023-05-22T14:28:47.772Z,8.02
2023-05-22T14:31:14.429Z,7.57
2023-05-22T14:33:41.293Z,8.73
2023-05-22T14:36:08.041Z,7.22
2023-05-22T14:38:34.727Z,7.57
2023-05-22T14:41:02.085Z,5.40
2023-05-22T14:43:28.702Z,6.15
2023-05-22T14:45:55.888Z,6.55
2023-05-22T14:48:22.632Z,6.45
2023-05-22T14:50:49.247Z,6.60
2023-05-22T14:53:15.916Z,6.00
2023-05-22T14:55:42.608Z,6.32
2023-05-22T14:58:10.234Z,5.07
2023-05-22T15:00:36.892Z,5.85
2023-05-22T15:03:03.991Z,5.82
2023-05-22T15:05:30.805Z,5.93
2023-05-22T15:07:57.562Z,5.05
2023-05-22T15:10:27.164Z,5.38
2023-05-22T15:12:54.206Z,4.95
2023-05-22T15:15:20.894Z,4.43
2023-05-22T15:17:47.511Z,3.92
2023-05-22T15:20:14.132Z,3.58
2023-05-22T15:22:40.883Z,3.80
2023-05-22T15:25:10.440Z,4.68
2023-05-22T15:27:38.713Z,4.05
2023-05-22T15:30:06.335Z,4.32
2023-05-22T15:34:59.783Z,3.43
2023-05-22T15:37:27.921Z,4.22
2023-05-22T15:39:55.243Z,3.20
2023-05-22T15:42:21.918Z,3.25
2023-05-22T15:44:48.536Z,2.88
2023-05-22T15:47:15.140Z,2.55
2023-05-22T15:49:41.805Z,2.70
2023-05-22T15:52:08.426Z,2.97
2023-05-22T15:54:35.054Z,2.63
2023-05-22T15:57:01.652Z,2.85
2023-05-22T15:59:28.260Z,2.50
2023-05-22T16:01:54.878Z,2.67
2023-05-22T16:04:21.481Z,2.83
2023-05-22T16:06:48.078Z,2.13
2023-05-22T16:09:14.710Z,2.95
2023-05-22T16:11:41.303Z,3.80
2023-05-22T16:14:08.075Z,3.10
2023-05-22T16:16:34.856Z,2.50
2023-05-22T16:19:01.568Z,2.80
2023-05-22T16:21:28.251Z,2.72
2023-05-22T16:23:57.564Z,2.70
2023-05-22T16:26:24.186Z,2.17
2023-05-22T16:28:50.771Z,2.92
2023-05-22T16:31:19.322Z,2.45
2023-05-22T16:33:46.155Z,2.72
2023-05-22T16:36:12.767Z,2.72
2023-05-22T16:38:39.341Z,2.58
2023-05-22T16:41:05.951Z,2.47
2023-05-22T16:43:32.624Z,2.88
2023-05-22T16:45:59.245Z,2.30
2023-05-22T16:48:26.019Z,2.60
2023-05-22T16:50:52.675Z,3.43
2023-05-22T16:53:19.759Z,2.58
2023-05-22T16:55:46.458Z,3.05
2023-05-22T16:58:13.158Z,2.80
2023-05-22T17:00:39.903Z,2.57
2023-05-22T17:03:06.914Z,3.05
2023-05-22T17:05:34.382Z,3.42
2023-05-22T17:08:00.963Z,3.03
2023-05-22T17:10:27.574Z,3.90
2023-05-22T17:12:54.331Z,3.55
2023-05-22T17:15:21.057Z,3.28
2023-05-22T17:17:47.854Z,4.70
2023-05-22T17:20:14.501Z,4.50
2023-05-22T17:22:42.776Z,3.80
2023-05-22T17:25:10.008Z,4.00
2023-05-22T17:27:37.094Z,3.65
2023-05-22T17:30:05.052Z,3.53
2023-05-22T17:32:31.782Z,3.65
2023-05-22T17:34:58.934Z,3.30
2023-05-22T17:37:25.658Z,3.17
2023-05-22T17:39:53.330Z,3.85
2023-05-22T17:44:46.537Z,3.93
2023-05-22T17:47:13.206Z,3.90
2023-05-22T17:49:39.886Z,3.97
2023-05-22T17:52:06.677Z,3.60
2023-05-22T17:54:34.320Z,3.45
2023-05-22T17:59:27.964Z,3.75
2023-05-22T18:01:54.672Z,4.10
2023-05-22T18:04:21.350Z,3.90
2023-05-22T18:06:48.105Z,3.97
2023-05-22T18:09:14.841Z,3.65
2023-05-22T18:11:41.603Z,4.88
2023-05-22T18:14:08.359Z,4.03
2023-05-22T18:16:34.981Z,3.95
2023-05-22T18:19:01.745Z,4.10
2023-05-22T18:21:28.614Z,4.45
2023-05-22T18:23:55.728Z,4.18
2023-05-22T18:26:22.616Z,4.70
2023-05-22T18:28:49.300Z,3.67
2023-05-22T18:31:16.013Z,4.00
2023-05-22T18:33:42.686Z,3.28
2023-05-22T18:36:09.329Z,3.40
2023-05-22T18:38:36.160Z,3.47
2023-05-22T18:41:02.788Z,3.60
2023-05-22T18:43:29.399Z,2.78
2023-05-22T18:45:56.875Z,3.50
2023-05-22T18:48:24.378Z,3.15
2023-05-22T18:50:51.491Z,3.45
2023-05-22T18:53:18.261Z,3.92
2023-05-22T18:55:45.066Z,3.25
2023-05-22T18:58:11.837Z,3.30
2023-05-22T19:00:38.538Z,2.40
2023-05-22T19:03:08.335Z,2.90
2023-05-22T19:05:35.300Z,3.30
2023-05-22T19:08:02.158Z,2.83
2023-05-22T19:10:28.911Z,4.00
2023-05-22T19:12:55.530Z,3.47
2023-05-22T19:15:22.389Z,3.63
2023-05-22T19:17:49.011Z,3.47
2023-05-22T19:20:15.888Z,3.63
2023-05-22T19:22:42.634Z,3.00
2023-05-22T19:25:09.468Z,3.45
2023-05-22T19:27:38.782Z,3.33
2023-05-22T19:30:06.772Z,3.50
2023-05-22T19:32:33.418Z,3.40
2023-05-22T19:35:00.111Z,3.83
2023-05-22T19:37:26.744Z,3.58
2023-05-22T19:39:54.180Z,3.42
2023-05-22T19:42:20.872Z,3.70
2023-05-22T19:44:47.458Z,3.15
2023-05-22T19:47:14.125Z,3.53
2023-05-22T19:49:40.755Z,3.25
2023-05-22T19:52:07.545Z,3.22
2023-05-22T19:54:35.022Z,3.28
2023-05-22T19:57:04.805Z,3.70
2023-05-22T19:59:31.716Z,3.20
2023-05-22T20:01:58.330Z,3.80
2023-05-22T20:04:25.055Z,3.72
2023-05-22T20:06:51.692Z,4.15
2023-05-22T20:09:18.466Z,4.40
2023-05-22T20:11:45.182Z,3.53
2023-05-22T20:14:12.855Z,3.70
2023-05-22T20:16:39.702Z,3.72
2023-05-22T20:19:06.757Z,3.63
2023-05-22T20:21:33.550Z,3.40
2023-05-22T20:24:00.427Z,4.55
2023-05-22T20:26:27.109Z,4.25
2023-05-22T20:28:53.900Z,4.30
2023-05-22T20:31:20.586Z,3.88
2023-05-22T20:33:47.195Z,4.30
2023-05-22T20:36:13.945Z,4.25
2023-05-22T20:38:40.725Z,4.68
2023-05-22T20:41:09.555Z,4.32
2023-05-22T20:43:36.613Z,4.00
2023-05-22T20:46:03.302Z,3.85
2023-05-22T20:48:30.039Z,4.50
2023-05-22T20:50:56.819Z,4.68
2023-05-22T20:53:23.404Z,4.35
2023-05-22T20:55:50.047Z,4.85
2023-05-22T20:58:16.744Z,4.40
2023-05-22T21:00:43.429Z,4.45
2023-05-22T21:03:10.098Z,4.20
2023-05-22T21:05:36.817Z,4.13
2023-05-22T21:08:03.511Z,4.05
2023-05-22T21:10:30.212Z,4.47
2023-05-22T21:12:56.862Z,4.15
2023-05-22T21:15:23.480Z,4.82
2023-05-22T21:17:50.108Z,3.72
2023-05-22T21:20:16.874Z,3.65
2023-05-22T21:22:43.583Z,3.78
2023-05-22T21:25:10.213Z,4.15
2023-05-22T21:27:36.809Z,3.63
2023-05-22T21:30:03.787Z,3.95
2023-05-22T21:32:30.473Z,4.22
2023-05-22T21:34:57.219Z,3.55
2023-05-22T21:37:23.824Z,4.50
2023-05-22T21:39:50.475Z,4.18
2023-05-22T21:42:17.480Z,4.15
2023-05-22T21:44:44.184Z,4.20
2023-05-22T21:47:11.022Z,3.78
2023-05-22T21:49:39.447Z,3.95
2023-05-22T21:52:06.378Z,3.83
2023-05-22T21:54:33.015Z,4.07
2023-05-22T21:56:59.741Z,4.60
2023-05-22T21:59:26.557Z,4.30
2023-05-22T22:01:53.221Z,4.10
2023-05-22T22:04:20.032Z,4.53
2023-05-22T22:06:46.664Z,3.85
2023-05-22T22:09:13.261Z,5.28
2023-05-22T22:11:39.891Z,4.35
2023-05-22T22:14:06.530Z,4.47
2023-05-22T22:16:34.097Z,3.75
2023-05-22T22:19:01.535Z,3.58
2023-05-22T22:21:28.330Z,4.90
2023-05-22T22:23:55.230Z,3.88
2023-05-22T22:26:21.839Z,4.13
2023-05-22T22:28:48.414Z,4.55
2023-05-22T22:31:15.098Z,4.75
2023-05-22T22:33:41.799Z,4.72
2023-05-22T22:36:08.502Z,4.97
2023-05-22T22:38:35.315Z,4.95
2023-05-22T22:41:02.058Z,4.25
2023-05-22T22:43:28.733Z,4.75
2023-05-22T22:45:55.500Z,4.65
2023-05-22T22:48:22.136Z,4.70
2023-05-22T22:50:49.219Z,4.85
2023-05-22T22:53:15.902Z,4.97
2023-05-22T22:55:42.894Z,5.50
2023-05-22T22:58:09.829Z,4.28
2023-05-22T23:00:36.606Z,5.70
2023-05-22T23:03:03.396Z,5.57
2023-05-22T23:05:30.235Z,5.07
2023-05-22T23:07:56.859Z,4.95
2023-05-22T23:10:23.532Z,6.20
2023-05-22T23:12:50.126Z,5.95
2023-05-22T23:15:16.841Z,5.90
2023-05-22T23:17:43.530Z,5.43
2023-05-22T23:20:11.034Z,5.28
2023-05-22T23:22:37.744Z,5.53
2023-05-22T23:25:04.748Z,5.80
2023-05-22T23:27:31.460Z,5.38
2023-05-22T23:29:58.166Z,4.80
2023-05-22T23:32:24.888Z,4.65
2023-05-22T23:34:51.619Z,5.03
2023-05-22T23:37:18.348Z,5.43
2023-05-22T23:39:44.957Z,4.95
2023-05-22T23:42:11.664Z,4.68
2023-05-22T23:44:38.377Z,6.38
2023-05-22T23:47:06.212Z,6.03
2023-05-22T23:49:33.012Z,6.70
2023-05-22T23:52:00.090Z,4.75
2023-05-22T23:54:26.726Z,4.90
2023-05-22T23:56:53.352Z,5.20
2023-05-22T23:59:20.054Z,5.95
